CheckWX is a tool to help pilots better visualize weather data.  It is not intended as a substitute for an official pre-flight weather briefing.

05:12:25 UTC

KRTS METAR
Reno / Stead Airport
Reno, Nevada, USA
Current

17 mins ago

KRTS 240455Z AUTO 25012KT 10SM FEW080 OVC090 01/M04 A3017 RMK AO2
Observed
Feb-24 @ 04:55 UTC
Wind
  • 250° at 12 KTS
Visibility
10 SM
Flight Rules
VFR
Cloud Levels
  • Few at 8,000' AGL
  • Overcast at 9,000' AGL
Temperature
C / 34°F
Dewpoint
-4°C / 25°F
Humidity
70%
Altimeter
30.17" Hg
Pressure
1021.72 hPa
Previous

37 mins ago

KRTS 240435Z AUTO 25014G19KT 10SM FEW060 OVC085 02/M05 A3016 RMK AO2
Observed
Feb-24 @ 04:35 UTC
Wind
  • 250° at 14 KTS
  • Gusting to 19 KTS
Visibility
10 SM
Flight Rules
VFR
Cloud Levels
  • Few at 6,000' AGL
  • Overcast at 8,500' AGL
Temperature
C / 36°F
Dewpoint
-5°C / 23°F
Humidity
60%
Altimeter
30.16" Hg
Pressure
1021.32 hPa
Previous

57 mins ago

KRTS 240415Z AUTO 24013G18KT 10SM SCT055 OVC085 02/M05 A3016 RMK AO2
Observed
Feb-24 @ 04:15 UTC
Wind
  • 240° at 13 KTS
  • Gusting to 18 KTS
Visibility
10 SM
Flight Rules
VFR
Cloud Levels
  • Scattered at 5,500' AGL
  • Overcast at 8,500' AGL
Temperature
C / 36°F
Dewpoint
-5°C / 23°F
Humidity
60%
Altimeter
30.16" Hg
Pressure
1021.32 hPa